Admiral — WCY6529 — position and weather

sailwx.info

Track history (hours):
 
Tides and Currents Weather Stations Pressure Air Temp Water Temp Dewpoint Dewpoint Depression Visibility Wind Speed Wind Dir Waves Ship Positions

Admiral

Owner: Crowley Marine Services, SEATTLE, WA. More information available from US FCC via Universal Licensing System and Coast Guard Vessel Documentation Center.

Last reported at 2017-Jan-18 12:33 UTC. Time now 2017-Jan-18 18:15 UTC.
Position N 33°43' W 118°15'.

; draft 5.3 m.

Type: Tug. MMSI: 366755020.

Date/timePositionNaut miles runAvg speedWind from/ knotsBaromVisibWave heightAir tempDewpointWater temp
2017-Jan-18 12:33N 33°43' W 118°15'2 1.6
2017-Jan-18 11:08N 33°44' W 118°17'0 0.0
2017-Jan-18 10:24N 33°44' W 118°17'0 0.0
2017-Jan-18 09:18N 33°44' W 118°17'0 0.0
2017-Jan-18 08:18N 33°44' W 118°17'1 0.6
2017-Jan-18 07:08N 33°45' W 118°16'1 0.3
2017-Jan-18 05:05N 33°44' W 118°17'0 0.0
2017-Jan-18 04:32N 33°44' W 118°17'0 0.0
2017-Jan-18 03:33N 33°44' W 118°17'0 0.0
2017-Jan-18 00:33N 33°44' W 118°17'0 0.0
2017-Jan-17 23:32N 33°44' W 118°17'0 0.0
2017-Jan-17 22:33N 33°44' W 118°17'0 0.0
2017-Jan-17 21:33N 33°44' W 118°17'0 0.0
2017-Jan-17 20:33N 33°44' W 118°17'0 0.0
2017-Jan-17 19:34N 33°44' W 118°17'3 3.1
2017-Jan-17 18:33N 33°45' W 118°13'0 0.0
2017-Jan-17 17:29N 33°45' W 118°13'2 1.9
2017-Jan-17 16:33N 33°44' W 118°12'3 2.7
2017-Jan-17 15:33N 33°42' W 118°10'6 6.0
2017-Jan-17 14:33N 33°45' W 118°16'1 0.5
2017-Jan-17 13:33N 33°45' W 118°17'3 3.1
2017-Jan-17 12:33N 33°43' W 118°14'3 2.8
2017-Jan-17 11:33N 33°44' W 118°17'0 0.0
2017-Jan-17 10:33N 33°44' W 118°17'0 0.0
2017-Jan-17 09:33N 33°44' W 118°17'0 0.0
2017-Jan-17 08:33N 33°44' W 118°17'1 1.1
2017-Jan-17 07:31N 33°43' W 118°16'5 4.9
2017-Jan-17 06:27N 33°44' W 118°10'0 0.2
2017-Jan-17 05:31N 33°44' W 118°10'4 1.1
2017-Jan-17 02:06N 33°45' W 118°14'0 0.0
2017-Jan-17 01:32N 33°45' W 118°14'1 0.8
2017-Jan-17 00:33N 33°45' W 118°13'1 1.2
2017-Jan-16 23:29N 33°46' W 118°14'1 0.0
2017-Jan-15 08:14N 33°45' W 118°13'0 0.0
2017-Jan-15 07:33N 33°45' W 118°13'0 0.0
2017-Jan-15 06:28N 33°45' W 118°13'0 0.0
2017-Jan-15 05:32N 33°45' W 118°13'0 0.0
2017-Jan-15 04:31N 33°45' W 118°13'1 1.3
2017-Jan-15 03:28N 33°46' W 118°14'2 1.9
2017-Jan-15 02:29N 33°45' W 118°12'3 3.6
2017-Jan-15 01:34N 33°43' W 118°16'1 1.2
2017-Jan-15 00:33N 33°44' W 118°17'0 0.0
2017-Jan-14 23:33N 33°44' W 118°17'0 0.0
2017-Jan-14 22:33N 33°44' W 118°17'0 0.0
2017-Jan-14 21:33N 33°44' W 118°17'0 0.0
2017-Jan-14 20:33N 33°44' W 118°17'0 0.0
2017-Jan-14 19:33N 33°44' W 118°17'0 0.0
2017-Jan-14 18:33N 33°44' W 118°17'0 0.0
2017-Jan-14 17:28N 33°44' W 118°17'2 2.7
2017-Jan-14 16:33N 33°43' W 118°14'3 1.4
2017-Jan-14 14:27N 33°46' W 118°13'3 3.8
2017-Jan-14 13:33N 33°44' W 118°10'3 1.5
2017-Jan-14 11:33N 33°45' W 118°13'  
2017-Jan-12 01:27N 33°44' W 118°17'1 1.3
2017-Jan-12 00:31N 33°45' W 118°16'1 1.3
2017-Jan-11 23:33N 33°44' W 118°17'0 0.0
2017-Jan-11 22:32N 33°44' W 118°17'  
2017-Jan-09 10:18N 33°44' W 118°17'0 0.0
2017-Jan-09 09:30N 33°44' W 118°17'0 0.0
2017-Jan-09 08:33N 33°44' W 118°17'0 0.4
2017-Jan-09 07:33N 33°45' W 118°16'0 0.5
2017-Jan-09 06:33N 33°45' W 118°16'3 2.6
2017-Jan-09 05:31N 33°43' W 118°14'2 2.1
2017-Jan-09 04:33N 33°45' W 118°13'1 1.3
2017-Jan-09 03:33N 33°46' W 118°13'2 2.0
2017-Jan-09 02:26N 33°44' W 118°12'1 0.4
2017-Jan-08 23:20N 33°44' W 118°14'3 0.6
2017-Jan-08 19:06N 33°44' W 118°17'0 0.0
2017-Jan-08 18:33N 33°44' W 118°17'0 0.0
2017-Jan-08 17:33N 33°44' W 118°17'0 0.0
2017-Jan-08 16:31N 33°44' W 118°17'0 0.0
2017-Jan-08 15:22N 33°44' W 118°17'0 0.1
2017-Jan-08 14:11N 33°44' W 118°17'5 7.0
2017-Jan-08 13:31N 33°44' W 118°11'0 0.4
2017-Jan-08 12:33N 33°44' W 118°12'  
Track history (hours):
 
Tides and Currents Weather Stations Pressure Air Temp Water Temp Dewpoint Dewpoint Depression Visibility Wind Speed Wind Dir Waves Ship Positions

Admiral

Owner: Crowley Marine Services, SEATTLE, WA. More information available from US FCC via Universal Licensing System and Coast Guard Vessel Documentation Center.

Last reported at 2017-Jan-18 12:33 UTC. Time now 2017-Jan-18 18:15 UTC.
Position N 33°43' W 118°15'.

; draft 5.3 m.

Type: Tug. MMSI: 366755020.

Date/timePositionNaut miles runAvg speedWind from/ knotsBaromVisibWave heightAir tempDewpointWater temp
2017-Jan-18 12:33N 33°43' W 118°15'2 1.6
2017-Jan-18 11:08N 33°44' W 118°17'0 0.0
2017-Jan-18 10:24N 33°44' W 118°17'0 0.0
2017-Jan-18 09:18N 33°44' W 118°17'0 0.0
2017-Jan-18 08:18N 33°44' W 118°17'1 0.6
2017-Jan-18 07:08N 33°45' W 118°16'1 0.3
2017-Jan-18 05:05N 33°44' W 118°17'0 0.0
2017-Jan-18 04:32N 33°44' W 118°17'0 0.0
2017-Jan-18 03:33N 33°44' W 118°17'0 0.0
2017-Jan-18 00:33N 33°44' W 118°17'0 0.0
2017-Jan-17 23:32N 33°44' W 118°17'0 0.0
2017-Jan-17 22:33N 33°44' W 118°17'0 0.0
2017-Jan-17 21:33N 33°44' W 118°17'0 0.0
2017-Jan-17 20:33N 33°44' W 118°17'0 0.0
2017-Jan-17 19:34N 33°44' W 118°17'3 3.1
2017-Jan-17 18:33N 33°45' W 118°13'0 0.0
2017-Jan-17 17:29N 33°45' W 118°13'2 1.9
2017-Jan-17 16:33N 33°44' W 118°12'3 2.7
2017-Jan-17 15:33N 33°42' W 118°10'6 6.0
2017-Jan-17 14:33N 33°45' W 118°16'1 0.5
2017-Jan-17 13:33N 33°45' W 118°17'3 3.1
2017-Jan-17 12:33N 33°43' W 118°14'3 2.8
2017-Jan-17 11:33N 33°44' W 118°17'0 0.0
2017-Jan-17 10:33N 33°44' W 118°17'0 0.0
2017-Jan-17 09:33N 33°44' W 118°17'0 0.0
2017-Jan-17 08:33N 33°44' W 118°17'1 1.1
2017-Jan-17 07:31N 33°43' W 118°16'5 4.9
2017-Jan-17 06:27N 33°44' W 118°10'0 0.2
2017-Jan-17 05:31N 33°44' W 118°10'4 1.1
2017-Jan-17 02:06N 33°45' W 118°14'0 0.0
2017-Jan-17 01:32N 33°45' W 118°14'1 0.8
2017-Jan-17 00:33N 33°45' W 118°13'1 1.2
2017-Jan-16 23:29N 33°46' W 118°14'1 0.0
2017-Jan-15 08:14N 33°45' W 118°13'0 0.0
2017-Jan-15 07:33N 33°45' W 118°13'0 0.0
2017-Jan-15 06:28N 33°45' W 118°13'0 0.0
2017-Jan-15 05:32N 33°45' W 118°13'0 0.0
2017-Jan-15 04:31N 33°45' W 118°13'1 1.3
2017-Jan-15 03:28N 33°46' W 118°14'2 1.9
2017-Jan-15 02:29N 33°45' W 118°12'3 3.6
2017-Jan-15 01:34N 33°43' W 118°16'1 1.2
2017-Jan-15 00:33N 33°44' W 118°17'0 0.0
2017-Jan-14 23:33N 33°44' W 118°17'0 0.0
2017-Jan-14 22:33N 33°44' W 118°17'0 0.0
2017-Jan-14 21:33N 33°44' W 118°17'0 0.0
2017-Jan-14 20:33N 33°44' W 118°17'0 0.0
2017-Jan-14 19:33N 33°44' W 118°17'0 0.0
2017-Jan-14 18:33N 33°44' W 118°17'0 0.0
2017-Jan-14 17:28N 33°44' W 118°17'2 2.7
2017-Jan-14 16:33N 33°43' W 118°14'3 1.4
2017-Jan-14 14:27N 33°46' W 118°13'3 3.8
2017-Jan-14 13:33N 33°44' W 118°10'3 1.5
2017-Jan-14 11:33N 33°45' W 118°13'  
2017-Jan-12 01:27N 33°44' W 118°17'1 1.3
2017-Jan-12 00:31N 33°45' W 118°16'1 1.3
2017-Jan-11 23:33N 33°44' W 118°17'0 0.0
2017-Jan-11 22:32N 33°44' W 118°17'  
2017-Jan-09 10:18N 33°44' W 118°17'0 0.0
2017-Jan-09 09:30N 33°44' W 118°17'0 0.0
2017-Jan-09 08:33N 33°44' W 118°17'0 0.4
2017-Jan-09 07:33N 33°45' W 118°16'0 0.5
2017-Jan-09 06:33N 33°45' W 118°16'3 2.6
2017-Jan-09 05:31N 33°43' W 118°14'2 2.1
2017-Jan-09 04:33N 33°45' W 118°13'1 1.3
2017-Jan-09 03:33N 33°46' W 118°13'2 2.0
2017-Jan-09 02:26N 33°44' W 118°12'1 0.4
2017-Jan-08 23:20N 33°44' W 118°14'3 0.6
2017-Jan-08 19:06N 33°44' W 118°17'0 0.0
2017-Jan-08 18:33N 33°44' W 118°17'0 0.0
2017-Jan-08 17:33N 33°44' W 118°17'0 0.0
2017-Jan-08 16:31N 33°44' W 118°17'0 0.0
2017-Jan-08 15:22N 33°44' W 118°17'0 0.1
2017-Jan-08 14:11N 33°44' W 118°17'5 7.0
2017-Jan-08 13:31N 33°44' W 118°11'0 0.4
2017-Jan-08 12:33N 33°44' W 118°12'  

Dump ship's entire track history